sensor_id;sensor_type;location;lat;lon;timestamp;P1;durP1;ratioP1;P2;durP2;ratioP2
53674;SDS011;39574;50.534;8.500;2023-04-03T00:01:12;3.9;;;1.5;;
53674;SDS011;39574;50.534;8.500;2023-04-03T00:06:10;3.5;;;1.5;;
53674;SDS011;39574;50.534;8.500;2023-04-03T00:11:09;3.7;;;1.5;;
53674;SDS011;39574;50.534;8.500;2023-04-03T00:16:07;3.6;;;1.4;;
53674;SDS011;39574;50.534;8.500;2023-04-03T00:21:06;3.4;;;1.3;;
53674;SDS011;39574;50.534;8.500;2023-04-03T00:26:05;3.8;;;1.3;;
53674;SDS011;39574;50.534;8.500;2023-04-03T00:31:04;4.4;;;1.4;;
53674;SDS011;39574;50.534;8.500;2023-04-03T00:36:05;3.7;;;1.3;;
53674;SDS011;39574;50.534;8.500;2023-04-03T00:41:02;4.6;;;1.4;;
53674;SDS011;39574;50.534;8.500;2023-04-03T00:46:00;4.7;;;1.4;;
53674;SDS011;39574;50.534;8.500;2023-04-03T00:51:00;4.6;;;1.4;;
53674;SDS011;39574;50.534;8.500;2023-04-03T00:55:58;4.6;;;1.4;;
53674;SDS011;39574;50.534;8.500;2023-04-03T01:00:58;3.9;;;1.4;;
53674;SDS011;39574;50.534;8.500;2023-04-03T01:05:56;3.9;;;1.4;;
53674;SDS011;39574;50.534;8.500;2023-04-03T01:10:55;3.8;;;1.4;;
53674;SDS011;39574;50.534;8.500;2023-04-03T01:15:54;4.1;;;1.4;;
53674;SDS011;39574;50.534;8.500;2023-04-03T01:21:54;4.3;;;1.4;;
53674;SDS011;39574;50.534;8.500;2023-04-03T01:25:53;4.0;;;1.4;;
53674;SDS011;39574;50.534;8.500;2023-04-03T01:30:53;3.9;;;1.4;;
53674;SDS011;39574;50.534;8.500;2023-04-03T01:35:49;4.2;;;1.6;;
53674;SDS011;39574;50.534;8.500;2023-04-03T01:40:48;4.3;;;1.4;;
53674;SDS011;39574;50.534;8.500;2023-04-03T01:45:48;4.9;;;1.3;;
53674;SDS011;39574;50.534;8.500;2023-04-03T01:50:46;4.8;;;1.2;;
53674;SDS011;39574;50.534;8.500;2023-04-03T01:55:44;4.1;;;1.2;;
53674;SDS011;39574;50.534;8.500;2023-04-03T02:00:43;4.3;;;1.3;;
53674;SDS011;39574;50.534;8.500;2023-04-03T02:05:42;3.7;;;1.3;;
53674;SDS011;39574;50.534;8.500;2023-04-03T02:10:41;3.6;;;1.2;;
53674;SDS011;39574;50.534;8.500;2023-04-03T02:15:40;3.9;;;1.2;;
53674;SDS011;39574;50.534;8.500;2023-04-03T02:20:40;4.1;;;1.1;;
53674;SDS011;39574;50.534;8.500;2023-04-03T02:25:37;3.9;;;1.0;;
53674;SDS011;39574;50.534;8.500;2023-04-03T02:30:37;4.9;;;1.2;;
53674;SDS011;39574;50.534;8.500;2023-04-03T02:35:35;4.5;;;1.2;;
53674;SDS011;39574;50.534;8.500;2023-04-03T02:40:34;4.4;;;1.1;;
53674;SDS011;39574;50.534;8.500;2023-04-03T02:45:33;4.2;;;1.2;;
53674;SDS011;39574;50.534;8.500;2023-04-03T02:50:31;3.5;;;1.2;;
53674;SDS011;39574;50.534;8.500;2023-04-03T02:55:31;3.4;;;1.3;;
53674;SDS011;39574;50.534;8.500;2023-04-03T03:00:29;3.2;;;1.2;;
53674;SDS011;39574;50.534;8.500;2023-04-03T03:05:28;4.3;;;1.3;;
53674;SDS011;39574;50.534;8.500;2023-04-03T03:10:27;4.2;;;1.3;;
53674;SDS011;39574;50.534;8.500;2023-04-03T03:15:26;4.1;;;1.1;;
53674;SDS011;39574;50.534;8.500;2023-04-03T03:20:24;4.0;;;1.2;;
53674;SDS011;39574;50.534;8.500;2023-04-03T03:25:23;3.8;;;1.2;;
53674;SDS011;39574;50.534;8.500;2023-04-03T03:30:22;4.4;;;1.3;;
53674;SDS011;39574;50.534;8.500;2023-04-03T03:35:22;4.5;;;1.4;;
53674;SDS011;39574;50.534;8.500;2023-04-03T03:40:20;5.1;;;1.4;;
53674;SDS011;39574;50.534;8.500;2023-04-03T03:45:18;4.5;;;1.4;;
53674;SDS011;39574;50.534;8.500;2023-04-03T03:50:17;5.5;;;1.5;;
53674;SDS011;39574;50.534;8.500;2023-04-03T03:55:16;5.0;;;1.4;;
53674;SDS011;39574;50.534;8.500;2023-04-03T04:00:14;4.5;;;1.4;;
53674;SDS011;39574;50.534;8.500;2023-04-03T04:05:13;4.7;;;1.4;;
53674;SDS011;39574;50.534;8.500;2023-04-03T04:10:13;4.5;;;1.3;;
53674;SDS011;39574;50.534;8.500;2023-04-03T04:15:10;4.5;;;1.3;;
53674;SDS011;39574;50.534;8.500;2023-04-03T04:20:10;5.3;;;1.4;;
53674;SDS011;39574;50.534;8.500;2023-04-03T04:25:08;5.4;;;1.5;;
53674;SDS011;39574;50.534;8.500;2023-04-03T04:30:07;4.5;;;1.4;;
53674;SDS011;39574;50.534;8.500;2023-04-03T04:35:06;4.1;;;1.4;;
53674;SDS011;39574;50.534;8.500;2023-04-03T04:40:05;4.5;;;1.4;;
53674;SDS011;39574;50.534;8.500;2023-04-03T04:45:03;4.7;;;1.5;;
53674;SDS011;39574;50.534;8.500;2023-04-03T04:50:02;4.4;;;1.5;;
53674;SDS011;39574;50.534;8.500;2023-04-03T04:55:01;4.6;;;1.5;;
53674;SDS011;39574;50.534;8.500;2023-04-03T04:59:59;4.8;;;1.8;;
53674;SDS011;39574;50.534;8.500;2023-04-03T05:04:58;5.0;;;1.9;;
53674;SDS011;39574;50.534;8.500;2023-04-03T05:09:56;5.4;;;1.9;;
53674;SDS011;39574;50.534;8.500;2023-04-03T05:14:55;5.5;;;1.9;;
53674;SDS011;39574;50.534;8.500;2023-04-03T05:19:54;5.6;;;1.9;;
53674;SDS011;39574;50.534;8.500;2023-04-03T05:24:53;6.2;;;1.9;;
53674;SDS011;39574;50.534;8.500;2023-04-03T05:29:52;5.8;;;1.9;;
53674;SDS011;39574;50.534;8.500;2023-04-03T05:34:51;5.5;;;1.7;;
53674;SDS011;39574;50.534;8.500;2023-04-03T05:39:49;5.4;;;1.6;;
53674;SDS011;39574;50.534;8.500;2023-04-03T05:44:47;6.0;;;1.8;;
53674;SDS011;39574;50.534;8.500;2023-04-03T05:49:46;6.2;;;1.8;;
53674;SDS011;39574;50.534;8.500;2023-04-03T05:54:45;5.7;;;1.7;;
53674;SDS011;39574;50.534;8.500;2023-04-03T05:59:44;5.8;;;1.7;;
53674;SDS011;39574;50.534;8.500;2023-04-03T06:04:42;4.9;;;1.7;;
53674;SDS011;39574;50.534;8.500;2023-04-03T06:09:42;6.6;;;2.2;;
53674;SDS011;39574;50.534;8.500;2023-04-03T06:14:40;7.2;;;2.4;;
53674;SDS011;39574;50.534;8.500;2023-04-03T06:19:40;8.4;;;2.3;;
53674;SDS011;39574;50.534;8.500;2023-04-03T06:24:37;7.7;;;2.3;;
53674;SDS011;39574;50.534;8.500;2023-04-03T06:29:36;7.1;;;2.1;;
53674;SDS011;39574;50.534;8.500;2023-04-03T06:34:34;6.9;;;1.9;;
53674;SDS011;39574;50.534;8.500;2023-04-03T06:39:33;6.8;;;2.2;;
53674;SDS011;39574;50.534;8.500;2023-04-03T06:44:32;6.7;;;2.1;;
53674;SDS011;39574;50.534;8.500;2023-04-03T06:49:30;5.7;;;2.1;;
53674;SDS011;39574;50.534;8.500;2023-04-03T06:54:29;5.9;;;2.2;;
53674;SDS011;39574;50.534;8.500;2023-04-03T06:59:28;5.8;;;2.4;;
53674;SDS011;39574;50.534;8.500;2023-04-03T07:04:27;6.6;;;2.5;;
53674;SDS011;39574;50.534;8.500;2023-04-03T07:09:25;7.5;;;2.5;;
53674;SDS011;39574;50.534;8.500;2023-04-03T07:14:24;7.0;;;2.4;;
53674;SDS011;39574;50.534;8.500;2023-04-03T07:19:23;7.5;;;2.5;;
53674;SDS011;39574;50.534;8.500;2023-04-03T07:24:21;7.5;;;2.6;;
53674;SDS011;39574;50.534;8.500;2023-04-03T07:29:20;7.0;;;2.6;;
53674;SDS011;39574;50.534;8.500;2023-04-03T07:34:19;7.2;;;2.6;;
53674;SDS011;39574;50.534;8.500;2023-04-03T07:39:17;6.1;;;2.5;;
53674;SDS011;39574;50.534;8.500;2023-04-03T07:44:16;6.3;;;2.4;;
53674;SDS011;39574;50.534;8.500;2023-04-03T07:49:16;7.0;;;2.6;;
53674;SDS011;39574;50.534;8.500;2023-04-03T07:54:14;6.7;;;2.5;;
53674;SDS011;39574;50.534;8.500;2023-04-03T07:59:12;6.7;;;2.5;;
53674;SDS011;39574;50.534;8.500;2023-04-03T08:04:11;6.7;;;2.4;;
53674;SDS011;39574;50.534;8.500;2023-04-03T08:09:10;6.6;;;2.3;;
53674;SDS011;39574;50.534;8.500;2023-04-03T08:14:09;7.1;;;2.5;;
53674;SDS011;39574;50.534;8.500;2023-04-03T08:19:07;6.7;;;2.5;;
53674;SDS011;39574;50.534;8.500;2023-04-03T08:24:06;6.1;;;2.5;;
53674;SDS011;39574;50.534;8.500;2023-04-03T08:29:05;6.2;;;2.4;;
53674;SDS011;39574;50.534;8.500;2023-04-03T08:34:04;6.1;;;2.3;;
53674;SDS011;39574;50.534;8.500;2023-04-03T08:39:03;6.9;;;2.5;;
53674;SDS011;39574;50.534;8.500;2023-04-03T08:44:04;6.9;;;2.5;;
53674;SDS011;39574;50.534;8.500;2023-04-03T08:49:00;6.6;;;2.4;;
53674;SDS011;39574;50.534;8.500;2023-04-03T08:53:59;6.6;;;2.5;;
53674;SDS011;39574;50.534;8.500;2023-04-03T08:58:58;6.0;;;2.3;;
53674;SDS011;39574;50.534;8.500;2023-04-03T09:03:56;5.8;;;2.2;;
53674;SDS011;39574;50.534;8.500;2023-04-03T09:08:58;5.3;;;2.1;;
53674;SDS011;39574;50.534;8.500;2023-04-03T09:13:54;5.4;;;2.1;;
53674;SDS011;39574;50.534;8.500;2023-04-03T09:18:53;6.2;;;2.2;;
53674;SDS011;39574;50.534;8.500;2023-04-03T09:23:51;5.7;;;2.1;;
53674;SDS011;39574;50.534;8.500;2023-04-03T09:28:50;5.7;;;2.0;;
53674;SDS011;39574;50.534;8.500;2023-04-03T09:33:49;5.3;;;1.9;;
53674;SDS011;39574;50.534;8.500;2023-04-03T09:38:59;5.3;;;1.9;;
53674;SDS011;39574;50.534;8.500;2023-04-03T09:43:51;5.3;;;1.9;;
53674;SDS011;39574;50.534;8.500;2023-04-03T09:48:55;6.2;;;1.9;;
53674;SDS011;39574;50.534;8.500;2023-04-03T09:53:44;5.4;;;1.9;;
53674;SDS011;39574;50.534;8.500;2023-04-03T09:58:44;5.5;;;1.9;;
53674;SDS011;39574;50.534;8.500;2023-04-03T10:03:42;5.1;;;1.9;;
53674;SDS011;39574;50.534;8.500;2023-04-03T10:08:41;4.6;;;1.7;;
53674;SDS011;39574;50.534;8.500;2023-04-03T10:13:56;3.9;;;1.7;;
53674;SDS011;39574;50.534;8.500;2023-04-03T10:18:39;3.8;;;1.9;;
53674;SDS011;39574;50.534;8.500;2023-04-03T10:23:39;3.8;;;1.9;;
53674;SDS011;39574;50.534;8.500;2023-04-03T10:28:38;4.0;;;2.0;;
53674;SDS011;39574;50.534;8.500;2023-04-03T10:33:38;4.2;;;2.0;;
53674;SDS011;39574;50.534;8.500;2023-04-03T10:38:37;4.2;;;2.0;;
53674;SDS011;39574;50.534;8.500;2023-04-03T10:43:33;4.5;;;2.0;;
53674;SDS011;39574;50.534;8.500;2023-04-03T10:48:39;4.4;;;1.9;;
53674;SDS011;39574;50.534;8.500;2023-04-03T10:53:34;4.3;;;2.0;;
53674;SDS011;39574;50.534;8.500;2023-04-03T10:58:30;4.2;;;2.0;;
53674;SDS011;39574;50.534;8.500;2023-04-03T11:03:29;4.9;;;2.0;;
53674;SDS011;39574;50.534;8.500;2023-04-03T11:08:28;5.0;;;2.0;;
53674;SDS011;39574;50.534;8.500;2023-04-03T11:13:27;5.7;;;1.9;;
53674;SDS011;39574;50.534;8.500;2023-04-03T11:18:27;5.5;;;1.9;;
53674;SDS011;39574;50.534;8.500;2023-04-03T11:23:25;5.6;;;1.8;;
53674;SDS011;39574;50.534;8.500;2023-04-03T11:28:23;5.0;;;1.7;;
53674;SDS011;39574;50.534;8.500;2023-04-03T11:33:41;4.5;;;1.6;;
53674;SDS011;39574;50.534;8.500;2023-04-03T11:38:22;4.5;;;1.5;;
53674;SDS011;39574;50.534;8.500;2023-04-03T11:43:21;3.9;;;1.3;;
53674;SDS011;39574;50.534;8.500;2023-04-03T11:48:45;4.0;;;1.3;;
53674;SDS011;39574;50.534;8.500;2023-04-03T11:53:34;3.3;;;1.3;;
53674;SDS011;39574;50.534;8.500;2023-04-03T11:58:18;3.5;;;1.5;;
53674;SDS011;39574;50.534;8.500;2023-04-03T12:03:58;3.9;;;1.4;;
53674;SDS011;39574;50.534;8.500;2023-04-03T12:08:16;3.7;;;1.3;;
53674;SDS011;39574;50.534;8.500;2023-04-03T12:13:15;3.5;;;1.3;;
53674;SDS011;39574;50.534;8.500;2023-04-03T12:18:53;3.5;;;1.3;;
53674;SDS011;39574;50.534;8.500;2023-04-03T12:23:23;2.9;;;1.2;;
53674;SDS011;39574;50.534;8.500;2023-04-03T12:28:12;2.9;;;1.3;;
53674;SDS011;39574;50.534;8.500;2023-04-03T12:33:14;2.9;;;1.3;;
53674;SDS011;39574;50.534;8.500;2023-04-03T12:38:17;3.2;;;1.3;;
53674;SDS011;39574;50.534;8.500;2023-04-03T12:43:28;3.3;;;1.3;;
53674;SDS011;39574;50.534;8.500;2023-04-03T12:48:11;3.1;;;1.3;;
53674;SDS011;39574;50.534;8.500;2023-04-03T12:53:11;3.8;;;1.4;;
53674;SDS011;39574;50.534;8.500;2023-04-03T12:58:14;3.9;;;1.3;;
53674;SDS011;39574;50.534;8.500;2023-04-03T13:03:06;4.3;;;1.3;;
53674;SDS011;39574;50.534;8.500;2023-04-03T13:08:05;3.8;;;1.2;;
53674;SDS011;39574;50.534;8.500;2023-04-03T13:13:06;3.1;;;1.1;;
53674;SDS011;39574;50.534;8.500;2023-04-03T13:18:02;2.6;;;1.1;;
53674;SDS011;39574;50.534;8.500;2023-04-03T13:23:02;2.8;;;1.2;;
53674;SDS011;39574;50.534;8.500;2023-04-03T13:28:01;3.1;;;1.2;;
53674;SDS011;39574;50.534;8.500;2023-04-03T13:33:00;4.2;;;1.2;;
53674;SDS011;39574;50.534;8.500;2023-04-03T13:37:59;3.7;;;1.1;;
53674;SDS011;39574;50.534;8.500;2023-04-03T13:42:58;3.4;;;1.1;;
53674;SDS011;39574;50.534;8.500;2023-04-03T13:48:16;3.3;;;1.0;;
53674;SDS011;39574;50.534;8.500;2023-04-03T13:53:00;2.9;;;1.0;;
53674;SDS011;39574;50.534;8.500;2023-04-03T13:57:56;4.0;;;1.1;;
53674;SDS011;39574;50.534;8.500;2023-04-03T14:02:54;3.8;;;1.2;;
53674;SDS011;39574;50.534;8.500;2023-04-03T14:07:53;3.6;;;1.1;;
53674;SDS011;39574;50.534;8.500;2023-04-03T14:12:52;4.6;;;1.1;;
53674;SDS011;39574;50.534;8.500;2023-04-03T14:17:51;4.2;;;1.2;;
53674;SDS011;39574;50.534;8.500;2023-04-03T14:22:50;3.9;;;1.3;;
53674;SDS011;39574;50.534;8.500;2023-04-03T14:27:50;3.3;;;1.2;;
53674;SDS011;39574;50.534;8.500;2023-04-03T14:32:48;2.7;;;1.1;;
53674;SDS011;39574;50.534;8.500;2023-04-03T14:37:47;3.7;;;1.2;;
53674;SDS011;39574;50.534;8.500;2023-04-03T14:42:46;3.5;;;1.1;;
53674;SDS011;39574;50.534;8.500;2023-04-03T14:47:46;3.8;;;1.2;;
53674;SDS011;39574;50.534;8.500;2023-04-03T14:52:44;3.6;;;1.2;;
53674;SDS011;39574;50.534;8.500;2023-04-03T14:57:43;3.1;;;1.1;;
53674;SDS011;39574;50.534;8.500;2023-04-03T15:02:43;3.0;;;1.0;;
53674;SDS011;39574;50.534;8.500;2023-04-03T15:07:42;2.5;;;0.9;;
53674;SDS011;39574;50.534;8.500;2023-04-03T15:12:41;2.4;;;1.0;;
53674;SDS011;39574;50.534;8.500;2023-04-03T15:17:40;2.9;;;1.0;;
53674;SDS011;39574;50.534;8.500;2023-04-03T15:22:39;2.9;;;1.0;;
53674;SDS011;39574;50.534;8.500;2023-04-03T15:27:38;4.0;;;1.0;;
53674;SDS011;39574;50.534;8.500;2023-04-03T15:32:38;3.9;;;1.1;;
53674;SDS011;39574;50.534;8.500;2023-04-03T15:37:36;4.1;;;1.2;;
53674;SDS011;39574;50.534;8.500;2023-04-03T15:42:35;4.1;;;1.3;;
53674;SDS011;39574;50.534;8.500;2023-04-03T15:47:34;3.5;;;1.2;;
53674;SDS011;39574;50.534;8.500;2023-04-03T15:52:33;3.2;;;1.4;;
53674;SDS011;39574;50.534;8.500;2023-04-03T15:57:32;2.6;;;1.3;;
53674;SDS011;39574;50.534;8.500;2023-04-03T16:02:31;3.2;;;1.5;;
53674;SDS011;39574;50.534;8.500;2023-04-03T16:07:35;3.7;;;1.4;;
53674;SDS011;39574;50.534;8.500;2023-04-03T16:12:29;3.6;;;1.3;;
53674;SDS011;39574;50.534;8.500;2023-04-03T16:17:29;3.6;;;1.2;;
53674;SDS011;39574;50.534;8.500;2023-04-03T16:22:27;3.6;;;1.2;;
53674;SDS011;39574;50.534;8.500;2023-04-03T16:32:26;3.3;;;1.3;;
53674;SDS011;39574;50.534;8.500;2023-04-03T16:37:25;4.0;;;1.8;;
53674;SDS011;39574;50.534;8.500;2023-04-03T16:42:24;4.1;;;1.8;;
53674;SDS011;39574;50.534;8.500;2023-04-03T16:47:23;4.1;;;1.8;;
53674;SDS011;39574;50.534;8.500;2023-04-03T16:52:23;4.0;;;1.7;;
53674;SDS011;39574;50.534;8.500;2023-04-03T16:57:21;3.6;;;1.5;;
53674;SDS011;39574;50.534;8.500;2023-04-03T17:02:20;4.6;;;1.6;;
53674;SDS011;39574;50.534;8.500;2023-04-03T17:07:19;4.8;;;2.0;;
53674;SDS011;39574;50.534;8.500;2023-04-03T17:12:18;5.7;;;1.9;;
53674;SDS011;39574;50.534;8.500;2023-04-03T17:17:18;5.1;;;1.8;;
53674;SDS011;39574;50.534;8.500;2023-04-03T17:22:16;4.6;;;1.7;;
53674;SDS011;39574;50.534;8.500;2023-04-03T17:27:15;4.3;;;1.5;;
53674;SDS011;39574;50.534;8.500;2023-04-03T17:32:14;4.0;;;1.5;;
53674;SDS011;39574;50.534;8.500;2023-04-03T17:37:13;5.7;;;2.3;;
53674;SDS011;39574;50.534;8.500;2023-04-03T17:42:12;5.4;;;2.0;;
53674;SDS011;39574;50.534;8.500;2023-04-03T17:47:12;5.0;;;2.0;;
53674;SDS011;39574;50.534;8.500;2023-04-03T17:52:11;4.3;;;1.7;;
53674;SDS011;39574;50.534;8.500;2023-04-03T17:57:08;4.1;;;1.9;;
53674;SDS011;39574;50.534;8.500;2023-04-03T18:02:07;4.1;;;1.8;;
53674;SDS011;39574;50.534;8.500;2023-04-03T18:07:06;4.6;;;1.9;;
53674;SDS011;39574;50.534;8.500;2023-04-03T18:12:06;4.9;;;2.2;;
53674;SDS011;39574;50.534;8.500;2023-04-03T18:17:04;5.2;;;2.2;;
53674;SDS011;39574;50.534;8.500;2023-04-03T18:22:03;4.6;;;2.0;;
53674;SDS011;39574;50.534;8.500;2023-04-03T18:27:04;5.5;;;2.2;;
53674;SDS011;39574;50.534;8.500;2023-04-03T18:32:00;5.3;;;2.1;;
53674;SDS011;39574;50.534;8.500;2023-04-03T18:36:59;5.1;;;2.2;;
53674;SDS011;39574;50.534;8.500;2023-04-03T18:41:59;4.8;;;2.1;;
53674;SDS011;39574;50.534;8.500;2023-04-03T18:46:57;4.5;;;2.0;;
53674;SDS011;39574;50.534;8.500;2023-04-03T18:51:56;4.2;;;1.8;;
53674;SDS011;39574;50.534;8.500;2023-04-03T18:56:55;5.1;;;1.8;;
53674;SDS011;39574;50.534;8.500;2023-04-03T19:01:53;5.2;;;1.7;;
53674;SDS011;39574;50.534;8.500;2023-04-03T19:06:52;5.1;;;1.7;;
53674;SDS011;39574;50.534;8.500;2023-04-03T19:11:51;4.4;;;1.6;;
53674;SDS011;39574;50.534;8.500;2023-04-03T19:16:50;3.8;;;1.5;;
53674;SDS011;39574;50.534;8.500;2023-04-03T19:21:49;3.5;;;1.5;;
53674;SDS011;39574;50.534;8.500;2023-04-03T19:26:48;3.8;;;1.4;;
53674;SDS011;39574;50.534;8.500;2023-04-03T19:31:46;3.6;;;1.4;;
53674;SDS011;39574;50.534;8.500;2023-04-03T19:36:46;3.4;;;1.4;;
53674;SDS011;39574;50.534;8.500;2023-04-03T19:41:44;3.4;;;1.4;;
53674;SDS011;39574;50.534;8.500;2023-04-03T19:46:43;3.8;;;1.5;;
53674;SDS011;39574;50.534;8.500;2023-04-03T19:51:42;3.7;;;1.4;;
53674;SDS011;39574;50.534;8.500;2023-04-03T19:56:41;4.4;;;1.5;;
53674;SDS011;39574;50.534;8.500;2023-04-03T20:01:40;4.1;;;1.5;;
53674;SDS011;39574;50.534;8.500;2023-04-03T20:06:38;3.5;;;1.3;;
53674;SDS011;39574;50.534;8.500;2023-04-03T20:11:37;3.4;;;1.4;;
53674;SDS011;39574;50.534;8.500;2023-04-03T20:21:35;3.4;;;1.4;;
53674;SDS011;39574;50.534;8.500;2023-04-03T20:26:34;4.0;;;1.5;;
53674;SDS011;39574;50.534;8.500;2023-04-03T20:31:33;5.0;;;1.7;;
53674;SDS011;39574;50.534;8.500;2023-04-03T20:36:31;4.6;;;1.7;;
53674;SDS011;39574;50.534;8.500;2023-04-03T20:46:29;4.0;;;1.7;;
53674;SDS011;39574;50.534;8.500;2023-04-03T20:51:28;3.5;;;1.7;;
53674;SDS011;39574;50.534;8.500;2023-04-03T20:56:28;3.4;;;1.6;;
53674;SDS011;39574;50.534;8.500;2023-04-03T21:01:25;5.6;;;2.8;;
53674;SDS011;39574;50.534;8.500;2023-04-03T21:21:22;10.6;;;4.8;;
53674;SDS011;39574;50.534;8.500;2023-04-03T21:26:20;10.2;;;4.6;;
53674;SDS011;39574;50.534;8.500;2023-04-03T21:31:19;9.2;;;4.1;;
53674;SDS011;39574;50.534;8.500;2023-04-03T21:36:17;8.9;;;4.2;;
53674;SDS011;39574;50.534;8.500;2023-04-03T21:41:15;7.2;;;3.5;;
53674;SDS011;39574;50.534;8.500;2023-04-03T21:46:15;6.5;;;3.0;;
53674;SDS011;39574;50.534;8.500;2023-04-03T21:51:13;5.9;;;2.7;;
53674;SDS011;39574;50.534;8.500;2023-04-03T21:56:12;6.0;;;2.6;;
53674;SDS011;39574;50.534;8.500;2023-04-03T22:01:11;6.2;;;2.8;;
53674;SDS011;39574;50.534;8.500;2023-04-03T22:06:10;7.3;;;3.9;;
53674;SDS011;39574;50.534;8.500;2023-04-03T22:11:08;8.6;;;4.9;;
53674;SDS011;39574;50.534;8.500;2023-04-03T22:16:09;8.8;;;5.0;;
53674;SDS011;39574;50.534;8.500;2023-04-03T22:21:05;8.1;;;4.1;;
53674;SDS011;39574;50.534;8.500;2023-04-03T22:26:05;5.9;;;2.9;;
53674;SDS011;39574;50.534;8.500;2023-04-03T22:31:03;5.0;;;2.1;;
53674;SDS011;39574;50.534;8.500;2023-04-03T22:36:02;4.2;;;1.7;;
53674;SDS011;39574;50.534;8.500;2023-04-03T22:41:01;4.2;;;1.8;;
53674;SDS011;39574;50.534;8.500;2023-04-03T22:46:00;5.2;;;2.5;;
53674;SDS011;39574;50.534;8.500;2023-04-03T22:50:58;6.7;;;3.3;;
53674;SDS011;39574;50.534;8.500;2023-04-03T22:55:58;6.4;;;3.1;;
53674;SDS011;39574;50.534;8.500;2023-04-03T23:01:03;7.3;;;3.1;;
53674;SDS011;39574;50.534;8.500;2023-04-03T23:05:54;7.3;;;2.7;;
53674;SDS011;39574;50.534;8.500;2023-04-03T23:10:53;7.0;;;2.3;;
53674;SDS011;39574;50.534;8.500;2023-04-03T23:15:52;5.7;;;2.1;;
53674;SDS011;39574;50.534;8.500;2023-04-03T23:20:50;5.6;;;1.9;;
53674;SDS011;39574;50.534;8.500;2023-04-03T23:25:50;6.8;;;2.6;;
53674;SDS011;39574;50.534;8.500;2023-04-03T23:30:48;6.7;;;2.9;;
53674;SDS011;39574;50.534;8.500;2023-04-03T23:35:46;6.4;;;2.9;;
53674;SDS011;39574;50.534;8.500;2023-04-03T23:40:45;6.4;;;3.0;;
53674;SDS011;39574;50.534;8.500;2023-04-03T23:45:45;5.8;;;2.4;;
53674;SDS011;39574;50.534;8.500;2023-04-03T23:50:44;5.0;;;2.0;;
53674;SDS011;39574;50.534;8.500;2023-04-03T23:55:42;4.7;;;1.8;;
